Time;durP1;ratioP1;P1;durP2;ratioP2;P2;SDS_P1;SDS_P2;PMS_P1;PMS_P2;Temp;Humidity;BMP_temperature;BMP_pressure;BME280_temperature;BME280_humidity;BME280_pressure;Samples;Min_cycle;Max_cycle;Signal;HPM_P1;HPM_P2
2023/03/10 00:02:01;;;;;;;13.65;3.20;;;;;;;;;;5000804;28;20034;-74
2023/03/10 00:04:27;;;;;;;12.18;4.68;;;;;;;;;;5018072;28;20431;-75
2023/03/10 00:06:53;;;;;;;10.68;3.45;;;;;;;;;;4995742;28;20555;-75
2023/03/10 00:09:19;;;;;;;17.08;3.78;;;;;;;;;;5012190;28;20057;-74
2023/03/10 00:11:45;;;;;;;17.63;3.28;;;;;;;;;;5012439;28;20061;-73
2023/03/10 00:14:11;;;;;;;9.93;2.83;;;;;;;;;;4994387;28;20025;-74
2023/03/10 00:16:37;;;;;;;16.42;4.10;;;;;;;;;;5012025;28;20030;-74
2023/03/10 00:19:03;;;;;;;12.48;3.70;;;;;;;;;;4994092;28;20391;-74
2023/03/10 00:21:30;;;;;;;17.15;3.05;;;;;;;;;;5011649;28;20050;-74
2023/03/10 00:23:56;;;;;;;16.88;3.30;;;;;;;;;;5012115;28;20026;-74
2023/03/10 00:26:22;;;;;;;12.20;2.47;;;;;;;;;;5011611;28;20435;-74
2023/03/10 00:28:49;;;;;;;11.10;2.83;;;;;;;;;;5011661;28;20029;-74
2023/03/10 00:31:16;;;;;;;13.10;2.97;;;;;;;;;;5011727;28;20111;-73
2023/03/10 00:33:44;;;;;;;13.48;3.30;;;;;;;;;;5011494;28;20033;-74
2023/03/10 00:36:14;;;;;;;10.48;2.80;;;;;;;;;;5011342;28;20025;-74
2023/03/10 00:38:41;;;;;;;10.40;2.50;;;;;;;;;;5011859;28;20113;-74
2023/03/10 00:41:08;;;;;;;20.70;3.30;;;;;;;;;;5012086;28;20327;-74
2023/03/10 00:43:35;;;;;;;15.32;2.42;;;;;;;;;;4995631;28;20072;-71
2023/03/10 00:46:01;;;;;;;12.40;2.30;;;;;;;;;;5011792;28;20100;-74
2023/03/10 00:48:27;;;;;;;17.20;3.13;;;;;;;;;;5011571;28;20029;-73
2023/03/10 00:50:53;;;;;;;9.68;2.58;;;;;;;;;;5011721;28;20034;-73
2023/03/10 00:53:19;;;;;;;13.32;3.55;;;;;;;;;;5011726;28;20026;-73
2023/03/10 00:55:56;;;;;;;12.35;3.75;;;;;;;;;;5011583;28;20022;-73
2023/03/10 00:58:22;;;;;;;11.13;3.47;;;;;;;;;;5011244;28;20026;-73
2023/03/10 01:00:48;;;;;;;13.05;3.45;;;;;;;;;;5011535;28;20113;-73
2023/03/10 01:03:14;;;;;;;18.85;3.80;;;;;;;;;;5011480;28;20029;-73
2023/03/10 01:05:40;;;;;;;12.15;2.33;;;;;;;;;;5011672;28;20117;-73
2023/03/10 01:08:06;;;;;;;9.93;2.38;;;;;;;;;;5011349;28;20026;-72
2023/03/10 01:10:32;;;;;;;13.35;3.33;;;;;;;;;;5011499;28;20100;-73
2023/03/10 01:12:58;;;;;;;12.18;2.30;;;;;;;;;;5011628;28;20030;-73
2023/03/10 01:15:24;;;;;;;15.07;2.50;;;;;;;;;;5011389;28;20029;-72
2023/03/10 01:17:50;;;;;;;12.85;2.85;;;;;;;;;;5011289;28;20026;-73
2023/03/10 01:20:17;;;;;;;10.98;2.22;;;;;;;;;;5011288;28;20418;-73
2023/03/10 01:22:43;;;;;;;14.07;3.97;;;;;;;;;;5011605;28;20030;-73
2023/03/10 01:25:18;;;;;;;11.90;2.30;;;;;;;;;;5011379;28;20210;-74
2023/03/10 01:27:44;;;;;;;10.82;2.97;;;;;;;;;;5010088;28;20176;-74
2023/03/10 01:30:10;;;;;;;11.48;3.03;;;;;;;;;;5010926;28;20524;-74
2023/03/10 01:32:37;;;;;;;10.02;2.63;;;;;;;;;;5011273;28;20026;-74
2023/03/10 01:35:04;;;;;;;12.07;2.83;;;;;;;;;;5011325;28;20480;-73
2023/03/10 01:37:30;;;;;;;7.75;2.83;;;;;;;;;;5011215;28;20025;-73
2023/03/10 01:39:56;;;;;;;7.95;2.33;;;;;;;;;;5011382;28;20022;-73
2023/03/10 01:42:22;;;;;;;5.78;1.77;;;;;;;;;;5011436;28;20080;-73
2023/03/10 01:45:08;;;;;;;10.10;3.47;;;;;;;;;;5010922;28;20029;-73
2023/03/10 01:47:34;;;;;;;6.85;2.08;;;;;;;;;;5013426;28;20445;-73
2023/03/10 01:50:00;;;;;;;11.25;2.97;;;;;;;;;;5014937;28;20057;-74
2023/03/10 01:52:28;;;;;;;8.48;2.28;;;;;;;;;;4997204;28;20137;-74
2023/03/10 01:54:58;;;;;;;10.63;2.30;;;;;;;;;;4996869;28;20477;-74
2023/03/10 01:57:27;;;;;;;8.13;2.08;;;;;;;;;;5014089;28;20025;-74
2023/03/10 01:59:54;;;;;;;16.38;3.28;;;;;;;;;;5014281;28;20486;-74
2023/03/10 02:02:20;;;;;;;9.35;2.47;;;;;;;;;;5014440;28;20022;-74
2023/03/10 02:04:47;;;;;;;8.80;2.08;;;;;;;;;;5014679;28;20122;-74
2023/03/10 02:07:15;;;;;;;7.57;2.38;;;;;;;;;;5014264;28;20399;-74
2023/03/10 02:09:43;;;;;;;9.70;3.08;;;;;;;;;;5014245;28;20531;-74
2023/03/10 02:12:09;;;;;;;10.00;4.55;;;;;;;;;;4996752;28;20029;-74
2023/03/10 02:14:36;;;;;;;11.10;2.40;;;;;;;;;;4996568;28;20480;-74
2023/03/10 02:17:04;;;;;;;11.50;3.25;;;;;;;;;;4996555;28;20088;-73
2023/03/10 02:19:48;;;;;;;10.52;4.30;;;;;;;;;;5014156;28;20061;-74
2023/03/10 02:22:16;;;;;;;9.18;2.83;;;;;;;;;;5014599;28;20028;-74
2023/03/10 02:24:49;;;;;;;13.50;3.45;;;;;;;;;;5014103;28;20056;-74
2023/03/10 02:27:18;;;;;;;7.93;2.75;;;;;;;;;;4996258;28;20050;-75
2023/03/10 02:29:48;;;;;;;8.77;2.58;;;;;;;;;;5013978;28;20026;-74
2023/03/10 02:32:15;;;;;;;4.90;1.70;;;;;;;;;;5013922;28;20025;-74
2023/03/10 02:34:41;;;;;;;7.68;2.85;;;;;;;;;;4996112;28;20121;-71
2023/03/10 02:37:07;;;;;;;9.32;2.20;;;;;;;;;;5013623;28;20018;-71
2023/03/10 02:39:33;;;;;;;10.80;4.25;;;;;;;;;;5013658;28;20450;-74
2023/03/10 02:41:59;;;;;;;8.15;3.40;;;;;;;;;;4996308;28;20026;-74
2023/03/10 02:44:25;;;;;;;8.00;2.55;;;;;;;;;;5013769;28;20480;-74
2023/03/10 02:46:51;;;;;;;5.20;1.85;;;;;;;;;;4995920;28;20033;-74
2023/03/10 02:49:19;;;;;;;6.15;2.08;;;;;;;;;;5013396;28;20038;-73
2023/03/10 02:51:46;;;;;;;7.90;2.50;;;;;;;;;;5013464;28;20391;-72
2023/03/10 02:54:12;;;;;;;8.77;3.60;;;;;;;;;;5013394;28;20061;-70
2023/03/10 02:56:41;;;;;;;9.45;3.17;;;;;;;;;;5013166;28;20377;-71
2023/03/10 02:59:07;;;;;;;7.68;2.33;;;;;;;;;;5012653;28;20096;-71
2023/03/10 03:01:33;;;;;;;14.05;3.00;;;;;;;;;;5013254;28;20045;-72
2023/03/10 03:04:00;;;;;;;10.88;2.55;;;;;;;;;;5013558;28;20022;-72
2023/03/10 03:06:26;;;;;;;5.82;1.98;;;;;;;;;;5013305;28;20080;-72
2023/03/10 03:08:52;;;;;;;9.30;2.72;;;;;;;;;;4995267;28;20076;-72
2023/03/10 03:11:18;;;;;;;7.10;2.65;;;;;;;;;;5013430;28;20034;-72
2023/03/10 03:13:44;;;;;;;7.43;3.08;;;;;;;;;;5013151;28;20476;-72
2023/03/10 03:16:10;;;;;;;8.00;2.50;;;;;;;;;;5012947;28;20038;-72
2023/03/10 03:18:36;;;;;;;10.27;1.98;;;;;;;;;;5012677;28;20100;-73
2023/03/10 03:21:15;;;;;;;9.93;2.15;;;;;;;;;;5013125;28;20026;-72
2023/03/10 03:23:41;;;;;;;6.63;1.88;;;;;;;;;;5013203;28;20026;-73
2023/03/10 03:26:18;;;;;;;7.15;2.13;;;;;;;;;;5012704;28;20052;-72
2023/03/10 03:28:44;;;;;;;7.93;2.30;;;;;;;;;;5012664;28;20026;-72
2023/03/10 03:31:14;;;;;;;9.02;3.30;;;;;;;;;;5012123;28;20084;-72
2023/03/10 03:33:40;;;;;;;6.13;1.75;;;;;;;;;;5012697;28;20034;-73
2023/03/10 03:36:06;;;;;;;6.72;1.92;;;;;;;;;;5012674;28;20036;-73
2023/03/10 03:38:33;;;;;;;7.22;3.05;;;;;;;;;;5012350;28;20057;-72
2023/03/10 03:40:59;;;;;;;6.07;2.33;;;;;;;;;;5012555;28;20540;-73
2023/03/10 03:43:28;;;;;;;7.45;2.10;;;;;;;;;;5012490;28;20022;-73
2023/03/10 03:45:54;;;;;;;9.32;3.25;;;;;;;;;;5012652;28;20021;-72
2023/03/10 03:48:20;;;;;;;3.95;1.70;;;;;;;;;;5012211;28;20033;-72
2023/03/10 03:50:50;;;;;;;6.15;2.22;;;;;;;;;;5012584;28;20022;-72
2023/03/10 03:53:16;;;;;;;9.40;2.60;;;;;;;;;;5012474;28;20025;-72
2023/03/10 03:55:42;;;;;;;8.25;2.22;;;;;;;;;;5012329;28;20456;-72
2023/03/10 03:58:08;;;;;;;6.15;2.70;;;;;;;;;;4994574;28;20091;-73
2023/03/10 04:00:34;;;;;;;5.03;1.67;;;;;;;;;;5012360;28;20026;-73
2023/03/10 04:03:01;;;;;;;5.88;1.85;;;;;;;;;;4994585;28;20014;-74
2023/03/10 04:05:27;;;;;;;6.65;1.85;;;;;;;;;;5012543;28;20026;-74
2023/03/10 04:07:53;;;;;;;10.40;2.33;;;;;;;;;;5012042;28;20029;-73
2023/03/10 04:10:22;;;;;;;7.18;1.92;;;;;;;;;;5011494;28;20025;-73
2023/03/10 04:12:48;;;;;;;8.98;1.95;;;;;;;;;;5010976;28;20037;-74
2023/03/10 04:15:14;;;;;;;5.07;1.60;;;;;;;;;;5011891;28;20026;-75
2023/03/10 04:17:41;;;;;;;2.67;1.35;;;;;;;;;;5011868;28;20026;-73
2023/03/10 04:20:08;;;;;;;6.43;1.88;;;;;;;;;;5012033;28;20444;-73
2023/03/10 04:22:34;;;;;;;8.30;1.98;;;;;;;;;;5011798;28;20022;-73
2023/03/10 04:25:00;;;;;;;6.90;1.95;;;;;;;;;;5011835;28;20085;-73
2023/03/10 04:27:26;;;;;;;6.03;1.50;;;;;;;;;;5011683;28;20040;-74
2023/03/10 04:29:52;;;;;;;9.38;2.38;;;;;;;;;;5012134;28;20022;-74
2023/03/10 04:32:18;;;;;;;3.95;1.55;;;;;;;;;;5011932;28;20395;-73
2023/03/10 04:34:44;;;;;;;5.03;2.10;;;;;;;;;;5012006;28;20030;-73
2023/03/10 04:37:10;;;;;;;5.35;1.88;;;;;;;;;;5011559;28;20102;-74
2023/03/10 04:39:36;;;;;;;5.18;2.10;;;;;;;;;;5011750;28;20488;-74
2023/03/10 04:42:03;;;;;;;6.05;1.90;;;;;;;;;;4994415;28;20084;-74
2023/03/10 04:44:29;;;;;;;4.80;1.63;;;;;;;;;;5012445;28;20484;-74
2023/03/10 04:46:55;;;;;;;3.33;1.67;;;;;;;;;;5012145;28;20022;-74
2023/03/10 04:49:21;;;;;;;4.18;1.48;;;;;;;;;;5012130;28;20030;-73
2023/03/10 04:51:47;;;;;;;2.90;1.10;;;;;;;;;;5012352;28;20033;-74
2023/03/10 04:54:13;;;;;;;5.85;1.80;;;;;;;;;;5012223;28;20033;-73
2023/03/10 04:56:39;;;;;;;5.50;1.38;;;;;;;;;;5011833;28;20108;-73
2023/03/10 04:59:05;;;;;;;4.30;1.08;;;;;;;;;;5011634;28;20030;-74
2023/03/10 05:01:32;;;;;;;3.30;1.45;;;;;;;;;;4994458;28;20107;-74
2023/03/10 05:04:01;;;;;;;5.38;2.47;;;;;;;;;;5012474;28;20100;-74
2023/03/10 05:06:28;;;;;;;3.83;1.52;;;;;;;;;;5012075;28;20033;-73
2023/03/10 05:08:54;;;;;;;2.58;1.48;;;;;;;;;;5011530;28;20022;-73
2023/03/10 05:11:20;;;;;;;4.18;1.42;;;;;;;;;;5011973;28;20137;-72
2023/03/10 05:13:46;;;;;;;6.97;1.88;;;;;;;;;;4994123;28;20025;-72
2023/03/10 05:16:17;;;;;;;3.33;1.27;;;;;;;;;;5011457;28;20087;-73
2023/03/10 05:18:43;;;;;;;4.13;1.35;;;;;;;;;;5011848;28;20026;-73
2023/03/10 05:21:09;;;;;;;2.97;0.95;;;;;;;;;;4996390;28;20022;-73
2023/03/10 05:23:36;;;;;;;2.80;1.10;;;;;;;;;;5023251;28;20104;-74
2023/03/10 05:26:04;;;;;;;5.13;1.50;;;;;;;;;;5023248;28;20053;-75
2023/03/10 05:28:30;;;;;;;2.55;1.05;;;;;;;;;;5023011;28;20491;-73
2023/03/10 05:30:56;;;;;;;4.00;1.38;;;;;;;;;;5018542;28;20033;-73
2023/03/10 05:33:22;;;;;;;4.05;1.42;;;;;;;;;;5015148;28;20018;-74
2023/03/10 05:35:48;;;;;;;3.67;0.90;;;;;;;;;;5014829;28;20029;-73
2023/03/10 05:38:14;;;;;;;2.20;1.00;;;;;;;;;;5014461;28;20026;-75
2023/03/10 05:40:41;;;;;;;1.63;1.10;;;;;;;;;;5015063;28;20022;-73
2023/03/10 05:43:08;;;;;;;2.95;1.05;;;;;;;;;;5015127;28;20030;-73
2023/03/10 05:45:34;;;;;;;3.08;0.85;;;;;;;;;;5014992;28;20022;-73
2023/03/10 05:48:00;;;;;;;4.40;1.42;;;;;;;;;;5014499;28;20022;-74
2023/03/10 05:50:26;;;;;;;4.63;1.58;;;;;;;;;;5014749;28;20488;-72
2023/03/10 05:52:52;;;;;;;3.47;1.20;;;;;;;;;;5014413;28;20125;-73
2023/03/10 05:55:19;;;;;;;2.58;1.17;;;;;;;;;;4996643;28;20033;-73
2023/03/10 05:57:45;;;;;;;2.85;1.05;;;;;;;;;;5014287;28;20164;-74
2023/03/10 06:00:12;;;;;;;3.28;1.50;;;;;;;;;;5014700;28;20030;-73
2023/03/10 06:02:38;;;;;;;3.80;1.27;;;;;;;;;;5014582;28;20030;-74
2023/03/10 06:05:05;;;;;;;3.10;1.83;;;;;;;;;;5014253;28;20018;-73
2023/03/10 06:07:32;;;;;;;3.47;1.17;;;;;;;;;;5014098;28;20034;-75
2023/03/10 06:09:58;;;;;;;3.97;1.40;;;;;;;;;;5014513;28;20036;-75
2023/03/10 06:12:24;;;;;;;2.00;1.13;;;;;;;;;;4996559;28;20408;-75
2023/03/10 06:14:50;;;;;;;3.40;1.50;;;;;;;;;;5014022;28;20022;-75
2023/03/10 06:17:16;;;;;;;1.55;1.17;;;;;;;;;;5013532;28;20033;-76
2023/03/10 06:19:42;;;;;;;4.10;1.10;;;;;;;;;;5013577;28;20034;-73
2023/03/10 06:22:08;;;;;;;4.35;1.25;;;;;;;;;;5014257;28;20028;-73
2023/03/10 06:24:34;;;;;;;3.88;1.33;;;;;;;;;;4994585;28;20036;-71
2023/03/10 06:27:00;;;;;;;3.08;1.33;;;;;;;;;;5011549;28;20120;-72
2023/03/10 06:29:26;;;;;;;4.13;2.00;;;;;;;;;;5019305;28;20476;-72
2023/03/10 06:31:52;;;;;;;6.60;2.30;;;;;;;;;;5029739;28;20025;-73
2023/03/10 06:34:19;;;;;;;3.33;0.85;;;;;;;;;;5012025;28;20076;-72
2023/03/10 06:36:45;;;;;;;2.92;1.35;;;;;;;;;;5013270;28;20112;-73
2023/03/10 06:39:11;;;;;;;3.83;1.48;;;;;;;;;;5012825;28;20026;-71
2023/03/10 06:41:37;;;;;;;3.00;1.02;;;;;;;;;;5013411;28;20026;-73
2023/03/10 06:44:03;;;;;;;3.72;1.02;;;;;;;;;;5014732;28;20084;-71
2023/03/10 06:46:30;;;;;;;1.02;0.75;;;;;;;;;;5013378;28;20104;-73
2023/03/10 06:48:56;;;;;;;1.60;0.90;;;;;;;;;;5012900;28;20037;-71
2023/03/10 06:51:22;;;;;;;2.85;0.57;;;;;;;;;;5012184;28;20038;-73
2023/03/10 06:53:49;;;;;;;1.90;0.70;;;;;;;;;;5013713;28;20026;-73
2023/03/10 06:56:16;;;;;;;3.03;1.00;;;;;;;;;;5025102;28;20036;-72
2023/03/10 06:58:43;;;;;;;1.25;0.68;;;;;;;;;;5013353;28;20117;-73
2023/03/10 07:01:09;;;;;;;1.15;0.57;;;;;;;;;;5013529;28;20073;-73
2023/03/10 07:03:35;;;;;;;1.33;0.90;;;;;;;;;;5013286;28;20042;-73
2023/03/10 07:06:01;;;;;;;2.80;1.02;;;;;;;;;;5013206;28;20489;-73
2023/03/10 07:08:28;;;;;;;2.28;0.73;;;;;;;;;;4995217;28;20029;-73
2023/03/10 07:10:54;;;;;;;2.63;0.88;;;;;;;;;;5013339;28;20473;-71
2023/03/10 07:13:20;;;;;;;2.70;0.80;;;;;;;;;;5013450;28;20018;-72
2023/03/10 07:15:47;;;;;;;2.75;0.82;;;;;;;;;;4995192;28;20607;-73
2023/03/10 07:18:13;;;;;;;2.08;0.50;;;;;;;;;;5012842;28;20485;-73
2023/03/10 07:20:40;;;;;;;5.07;1.08;;;;;;;;;;5012741;28;20030;-72
2023/03/10 07:23:07;;;;;;;2.15;0.80;;;;;;;;;;5013209;28;20029;-72
2023/03/10 07:25:36;;;;;;;1.48;0.63;;;;;;;;;;5013067;28;20034;-73
2023/03/10 07:28:02;;;;;;;1.38;0.60;;;;;;;;;;5012348;28;20040;-72
2023/03/10 07:30:28;;;;;;;1.00;0.70;;;;;;;;;;5013096;28;20033;-72
2023/03/10 07:32:54;;;;;;;1.98;0.80;;;;;;;;;;5012874;28;20056;-72
2023/03/10 07:35:20;;;;;;;2.30;0.75;;;;;;;;;;5012604;28;20026;-71
2023/03/10 07:37:47;;;;;;;4.03;1.08;;;;;;;;;;5012458;28;20444;-75
2023/03/10 07:40:13;;;;;;;1.90;0.80;;;;;;;;;;4994978;28;20381;-77
2023/03/10 07:42:39;;;;;;;1.52;0.75;;;;;;;;;;5012700;28;20026;-76
2023/03/10 07:45:05;;;;;;;1.92;0.95;;;;;;;;;;5012965;28;20438;-77
2023/03/10 07:47:31;;;;;;;2.20;0.90;;;;;;;;;;5012603;28;20041;-72
2023/03/10 07:49:57;;;;;;;2.13;0.68;;;;;;;;;;5012631;28;20484;-71
2023/03/10 07:52:23;;;;;;;1.17;0.70;;;;;;;;;;5012584;28;20034;-71
2023/03/10 07:54:49;;;;;;;4.57;1.02;;;;;;;;;;5011876;28;20453;-71
2023/03/10 07:57:15;;;;;;;1.58;0.60;;;;;;;;;;5011806;28;20044;-71
2023/03/10 07:59:42;;;;;;;1.63;0.70;;;;;;;;;;4994410;28;20022;-69
2023/03/10 08:02:10;;;;;;;2.47;0.75;;;;;;;;;;5012175;28;20530;-71
2023/03/10 08:04:36;;;;;;;1.75;0.90;;;;;;;;;;5011984;28;20026;-71
2023/03/10 08:07:02;;;;;;;0.45;0.35;;;;;;;;;;5011816;28;20014;-72
2023/03/10 08:09:28;;;;;;;1.00;0.50;;;;;;;;;;5012065;28;20385;-71
2023/03/10 08:11:57;;;;;;;1.55;0.57;;;;;;;;;;5012118;28;20568;-71
2023/03/10 08:14:23;;;;;;;1.08;0.63;;;;;;;;;;5012031;28;20444;-72
2023/03/10 08:16:49;;;;;;;1.08;0.47;;;;;;;;;;5011764;28;20511;-72
2023/03/10 08:19:16;;;;;;;1.55;0.40;;;;;;;;;;5011892;28;20492;-72
2023/03/10 08:21:42;;;;;;;1.60;0.80;;;;;;;;;;5011869;28;20050;-71
2023/03/10 08:24:08;;;;;;;1.77;0.70;;;;;;;;;;5011921;28;20499;-71
2023/03/10 08:26:34;;;;;;;1.23;0.40;;;;;;;;;;5010214;28;20038;-71
2023/03/10 08:29:00;;;;;;;0.90;0.50;;;;;;;;;;5011532;28;20026;-72
2023/03/10 08:31:26;;;;;;;3.58;0.77;;;;;;;;;;4994304;28;20025;-71
2023/03/10 08:33:56;;;;;;;2.35;0.80;;;;;;;;;;5011768;28;20030;-71
2023/03/10 08:36:23;;;;;;;1.63;0.60;;;;;;;;;;5011537;28;20033;-71
2023/03/10 08:38:50;;;;;;;1.23;0.60;;;;;;;;;;5011264;28;20041;-73
2023/03/10 08:41:21;;;;;;;2.20;1.05;;;;;;;;;;5011902;28;20038;-72
2023/03/10 08:43:49;;;;;;;2.65;1.08;;;;;;;;;;5010116;28;20089;-72
2023/03/10 08:46:15;;;;;;;1.63;0.88;;;;;;;;;;5009675;28;20034;-71
2023/03/10 08:48:41;;;;;;;1.02;0.63;;;;;;;;;;5009362;28;20029;-71
2023/03/10 08:51:08;;;;;;;1.60;0.63;;;;;;;;;;5009489;28;20034;-71
2023/03/10 08:53:35;;;;;;;1.75;0.70;;;;;;;;;;5009772;28;20030;-72
2023/03/10 08:56:01;;;;;;;1.08;0.75;;;;;;;;;;5011161;28;20096;-72
2023/03/10 08:58:27;;;;;;;2.13;0.60;;;;;;;;;;5014104;28;20558;-70
2023/03/10 09:00:53;;;;;;;0.70;0.40;;;;;;;;;;4978231;28;20026;-72
2023/03/10 09:03:19;;;;;;;4.28;0.65;;;;;;;;;;4994401;28;20019;-72
2023/03/10 09:05:46;;;;;;;3.25;0.90;;;;;;;;;;4995813;28;20033;-72
2023/03/10 09:08:12;;;;;;;4.28;0.80;;;;;;;;;;4994216;28;20026;-72
2023/03/10 09:10:39;;;;;;;1.58;0.70;;;;;;;;;;4996119;28;20030;-72
2023/03/10 09:13:05;;;;;;;6.25;0.98;;;;;;;;;;4995678;28;20030;-72
2023/03/10 09:15:33;;;;;;;2.92;1.20;;;;;;;;;;4994150;28;20022;-72
2023/03/10 09:18:00;;;;;;;3.10;1.13;;;;;;;;;;4994922;28;20037;-72
2023/03/10 09:20:26;;;;;;;1.20;0.45;;;;;;;;;;4995498;28;20038;-72
2023/03/10 09:22:53;;;;;;;2.08;0.80;;;;;;;;;;4995625;28;20398;-73
2023/03/10 09:25:19;;;;;;;2.70;0.90;;;;;;;;;;4995464;28;20018;-71
2023/03/10 09:27:45;;;;;;;3.25;0.80;;;;;;;;;;4993896;28;20022;-72
2023/03/10 09:30:12;;;;;;;9.30;1.10;;;;;;;;;;4995283;28;20404;-71
2023/03/10 09:32:38;;;;;;;1.17;0.50;;;;;;;;;;4995542;28;20042;-69
2023/03/10 09:35:04;;;;;;;2.00;0.60;;;;;;;;;;5014622;28;20108;-72
2023/03/10 09:37:31;;;;;;;1.63;0.52;;;;;;;;;;5014380;28;20037;-71
2023/03/10 09:39:57;;;;;;;6.30;0.90;;;;;;;;;;5014676;28;20025;-73
2023/03/10 09:42:29;;;;;;;2.75;0.93;;;;;;;;;;5014780;28;20368;-72
2023/03/10 09:44:58;;;;;;;5.32;1.38;;;;;;;;;;4996708;28;20022;-72
2023/03/10 09:47:36;;;;;;;3.35;0.80;;;;;;;;;;5014532;28;20029;-72
2023/03/10 09:50:12;;;;;;;1.23;0.80;;;;;;;;;;5014525;28;20559;-71
2023/03/10 09:52:40;;;;;;;2.97;1.27;;;;;;;;;;5014511;28;20117;-69
2023/03/10 09:55:21;;;;;;;5.65;0.98;;;;;;;;;;5014096;28;20049;-71
2023/03/10 09:57:51;;;;;;;2.22;0.57;;;;;;;;;;5014399;28;20026;-72
2023/03/10 10:00:22;;;;;;;4.33;1.10;;;;;;;;;;5014600;28;20491;-72
2023/03/10 10:02:50;;;;;;;2.00;0.70;;;;;;;;;;5014169;28;20261;-72
2023/03/10 10:05:26;;;;;;;3.30;0.80;;;;;;;;;;5013844;28;20456;-74
2023/03/10 10:07:55;;;;;;;0.63;0.45;;;;;;;;;;5012506;28;20026;-73
2023/03/10 10:10:23;;;;;;;6.43;1.17;;;;;;;;;;5014257;28;20407;-71
2023/03/10 10:12:51;;;;;;;3.90;0.65;;;;;;;;;;5014230;28;20218;-72
2023/03/10 10:15:27;;;;;;;2.03;0.60;;;;;;;;;;5014079;28;20018;-72
2023/03/10 10:18:08;;;;;;;2.58;0.70;;;;;;;;;;5013801;28;20026;-73
2023/03/10 10:20:37;;;;;;;2.20;0.73;;;;;;;;;;4996197;28;20026;-72
2023/03/10 10:23:05;;;;;;;10.10;2.08;;;;;;;;;;5013816;28;20361;-72
2023/03/10 10:25:31;;;;;;;2.08;0.63;;;;;;;;;;4995980;28;20022;-70
2023/03/10 10:27:58;;;;;;;2.50;0.77;;;;;;;;;;5013068;28;20057;-70
2023/03/10 10:30:29;;;;;;;5.75;1.05;;;;;;;;;;5013695;28;20033;-71
2023/03/10 10:32:56;;;;;;;2.65;0.70;;;;;;;;;;5013747;28;20443;-72
2023/03/10 10:35:24;;;;;;;3.55;0.63;;;;;;;;;;5014353;28;20038;-71
2023/03/10 10:37:58;;;;;;;4.72;0.85;;;;;;;;;;5014176;28;20036;-71
2023/03/10 10:40:26;;;;;;;4.25;1.02;;;;;;;;;;5015022;28;20022;-71
2023/03/10 10:42:59;;;;;;;4.82;0.90;;;;;;;;;;5015317;28;20030;-73
2023/03/10 10:45:32;;;;;;;2.22;0.68;;;;;;;;;;4997988;28;20026;-71
2023/03/10 10:47:58;;;;;;;2.33;0.60;;;;;;;;;;5019704;28;20105;-70
2023/03/10 10:50:28;;;;;;;2.80;0.68;;;;;;;;;;5026144;28;20085;-71
2023/03/10 10:53:12;;;;;;;3.20;0.80;;;;;;;;;;5023440;28;20094;-71
2023/03/10 10:55:39;;;;;;;3.00;0.80;;;;;;;;;;5025450;28;20045;-72
2023/03/10 10:58:06;;;;;;;2.50;1.00;;;;;;;;;;5014184;28;20092;-72
2023/03/10 11:00:35;;;;;;;3.05;1.00;;;;;;;;;;5013863;28;20057;-71
2023/03/10 11:03:05;;;;;;;3.88;0.90;;;;;;;;;;5013324;28;20026;-73
2023/03/10 11:05:36;;;;;;;2.78;0.65;;;;;;;;;;5013092;28;20029;-73
2023/03/10 11:08:02;;;;;;;;;;;;;;;;;;5013578;28;20028;-72
2023/03/10 11:10:31;;;;;;;3.42;0.80;;;;;;;;;;5012864;28;19909;-71
2023/03/10 11:13:00;;;;;;;3.03;0.88;;;;;;;;;;4994107;28;20492;-72
2023/03/10 11:15:34;;;;;;;1.65;0.80;;;;;;;;;;5011138;28;20030;-72
2023/03/10 11:18:03;;;;;;;4.75;0.88;;;;;;;;;;5010687;28;20053;-71
2023/03/10 11:20:55;;;;;;;6.40;1.05;;;;;;;;;;5010938;28;20026;-72
2023/03/10 11:23:25;;;;;;;1.65;0.52;;;;;;;;;;4980602;28;20038;-70
2023/03/10 11:25:57;;;;;;;5.05;1.33;;;;;;;;;;5010426;28;20052;-72
2023/03/10 11:28:41;;;;;;;2.55;0.80;;;;;;;;;;5011194;28;20022;-72
2023/03/10 11:31:24;;;;;;;3.13;0.95;;;;;;;;;;5012752;28;20385;-72
2023/03/10 11:34:08;;;;;;;2.38;0.80;;;;;;;;;;5012597;28;20321;-72
2023/03/10 11:36:40;;;;;;;3.38;0.73;;;;;;;;;;5012668;28;20045;-73
2023/03/10 11:39:13;;;;;;;4.82;1.10;;;;;;;;;;5012484;28;20444;-73
2023/03/10 11:41:43;;;;;;;4.00;1.25;;;;;;;;;;5012401;28;20026;-73
2023/03/10 11:44:12;;;;;;;4.85;0.85;;;;;;;;;;5012449;28;20041;-72
2023/03/10 11:46:38;;;;;;;1.95;0.73;;;;;;;;;;5012654;28;20373;-72
2023/03/10 11:49:18;;;;;;;4.13;1.10;;;;;;;;;;5012623;28;20155;-73
2023/03/10 11:51:50;;;;;;;1.70;0.77;;;;;;;;;;5012431;28;20353;-71
2023/03/10 11:54:19;;;;;;;4.55;1.58;;;;;;;;;;5011976;28;20034;-71
2023/03/10 11:56:46;;;;;;;1.48;0.75;;;;;;;;;;5011064;28;20554;-73
2023/03/10 11:59:15;;;;;;;4.78;0.85;;;;;;;;;;5007073;28;20038;-73
2023/03/10 12:01:58;;;;;;;4.53;1.00;;;;;;;;;;5010689;28;20210;-72
2023/03/10 12:04:43;;;;;;;3.22;1.25;;;;;;;;;;4991294;28;20026;-72
2023/03/10 12:07:19;;;;;;;7.65;2.20;;;;;;;;;;5010458;28;20301;-71
2023/03/10 12:09:48;;;;;;;5.00;1.75;;;;;;;;;;4992422;28;20022;-73
2023/03/10 12:12:16;;;;;;;2.88;1.02;;;;;;;;;;5010131;28;20483;-72
2023/03/10 12:14:43;;;;;;;3.95;1.23;;;;;;;;;;5009973;28;20109;-72
2023/03/10 12:17:13;;;;;;;4.25;1.63;;;;;;;;;;5010235;28;20068;-71
2023/03/10 12:19:58;;;;;;;5.25;1.70;;;;;;;;;;5010533;28;20491;-72
2023/03/10 12:22:24;;;;;;;4.93;1.20;;;;;;;;;;5011647;28;20480;-72
2023/03/10 12:24:51;;;;;;;4.10;1.25;;;;;;;;;;5011201;28;20022;-72
2023/03/10 12:27:18;;;;;;;5.47;1.25;;;;;;;;;;5011373;28;20025;-72
2023/03/10 12:29:44;;;;;;;5.93;1.30;;;;;;;;;;5011211;28;20100;-72
2023/03/10 12:32:28;;;;;;;6.13;1.55;;;;;;;;;;5011836;28;20022;-72
2023/03/10 12:35:13;;;;;;;5.18;1.38;;;;;;;;;;4993783;28;20026;-72
2023/03/10 12:37:39;;;;;;;6.70;1.30;;;;;;;;;;5011702;28;20030;-74
2023/03/10 12:40:25;;;;;;;4.70;1.25;;;;;;;;;;5011713;28;20100;-73
2023/03/10 12:42:51;;;;;;;1.70;0.70;;;;;;;;;;5011545;28;20512;-74
2023/03/10 12:45:28;;;;;;;3.55;0.90;;;;;;;;;;5012825;28;20034;-73
2023/03/10 12:48:24;;;;;;;3.20;0.88;;;;;;;;;;5011257;28;20022;-72
2023/03/10 12:50:54;;;;;;;5.82;1.20;;;;;;;;;;4994791;28;20107;-73
2023/03/10 12:53:27;;;;;;;3.22;0.90;;;;;;;;;;5011791;28;20029;-73
2023/03/10 12:56:18;;;;;;;5.53;1.33;;;;;;;;;;5011747;28;20446;-72
2023/03/10 12:58:51;;;;;;;3.08;1.55;;;;;;;;;;5011630;28;20022;-75
2023/03/10 13:01:21;;;;;;;8.15;4.50;;;;;;;;;;5011737;28;20573;-74
2023/03/10 13:03:50;;;;;;;14.20;8.55;;;;;;;;;;4994018;28;20022;-74
2023/03/10 13:06:20;;;;;;;5.55;2.78;;;;;;;;;;5011348;28;20081;-72
2023/03/10 13:09:02;;;;;;;14.60;6.70;;;;;;;;;;5011451;28;20030;-74
2023/03/10 13:11:35;;;;;;;11.00;5.95;;;;;;;;;;5011406;28;20056;-74
2023/03/10 13:14:01;;;;;;;4.45;1.92;;;;;;;;;;5011425;28;20468;-74
2023/03/10 13:16:27;;;;;;;9.25;4.82;;;;;;;;;;5011253;28;20075;-75
2023/03/10 13:18:53;;;;;;;8.38;4.22;;;;;;;;;;5011432;28;20060;-74
2023/03/10 13:21:29;;;;;;;13.57;8.85;;;;;;;;;;5011404;28;20026;-74
2023/03/10 13:23:56;;;;;;;12.13;5.40;;;;;;;;;;5011302;28;20044;-74
2023/03/10 13:26:23;;;;;;;15.80;9.32;;;;;;;;;;5010296;28;20041;-73
2023/03/10 13:28:57;;;;;;;6.35;2.65;;;;;;;;;;5010863;28;20026;-73
2023/03/10 13:31:32;;;;;;;30.45;19.88;;;;;;;;;;5011466;28;20022;-70
2023/03/10 13:34:13;;;;;;;8.15;2.55;;;;;;;;;;5011285;28;20042;-73
2023/03/10 13:36:39;;;;;;;7.50;2.53;;;;;;;;;;5011114;28;20663;-74
2023/03/10 13:39:08;;;;;;;9.77;2.63;;;;;;;;;;5010721;28;20550;-74
2023/03/10 13:41:39;;;;;;;36.75;23.88;;;;;;;;;;5012324;28;20028;-74
2023/03/10 13:44:05;;;;;;;3.85;2.10;;;;;;;;;;5014742;28;20022;-74
2023/03/10 13:46:32;;;;;;;5.55;3.70;;;;;;;;;;5015155;28;20026;-74
2023/03/10 13:49:05;;;;;;;5.22;1.70;;;;;;;;;;5014581;28;20459;-73
2023/03/10 13:51:32;;;;;;;3.30;1.10;;;;;;;;;;5015016;28;20018;-72
2023/03/10 13:54:11;;;;;;;10.23;5.72;;;;;;;;;;5015266;28;20125;-74
2023/03/10 13:56:40;;;;;;;5.70;1.90;;;;;;;;;;5014755;28;20484;-73
2023/03/10 13:59:12;;;;;;;10.55;6.00;;;;;;;;;;5014305;28;20425;-73
2023/03/10 14:01:42;;;;;;;7.90;3.17;;;;;;;;;;5014586;28;20105;-74
2023/03/10 14:04:14;;;;;;;6.20;3.33;;;;;;;;;;4996760;28;20022;-74
2023/03/10 14:06:40;;;;;;;7.53;3.03;;;;;;;;;;5014436;28;20404;-74
2023/03/10 14:09:19;;;;;;;5.70;1.90;;;;;;;;;;5013886;28;20034;-72
2023/03/10 14:11:46;;;;;;;17.75;10.20;;;;;;;;;;5014212;28;20026;-73
2023/03/10 14:14:13;;;;;;;17.98;10.70;;;;;;;;;;5012786;28;20036;-73
2023/03/10 14:16:58;;;;;;;24.75;15.60;;;;;;;;;;5014164;28;20427;-74
2023/03/10 14:19:42;;;;;;;11.18;7.05;;;;;;;;;;5013913;28;20443;-73
2023/03/10 14:22:22;;;;;;;23.70;15.93;;;;;;;;;;5013993;28;20066;-75
2023/03/10 14:24:48;;;;;;;25.08;15.43;;;;;;;;;;5013653;28;20399;-73
2023/03/10 14:27:15;;;;;;;32.45;19.83;;;;;;;;;;5013478;28;20053;-73
2023/03/10 14:29:45;;;;;;;23.42;13.13;;;;;;;;;;5013984;28;20033;-74
2023/03/10 14:32:12;;;;;;;10.65;5.72;;;;;;;;;;5013850;28;20022;-76
2023/03/10 14:34:38;;;;;;;22.50;13.43;;;;;;;;;;5013755;28;20048;-75
2023/03/10 14:37:04;;;;;;;11.30;5.47;;;;;;;;;;5013861;28;20113;-75
2023/03/10 14:39:32;;;;;;;4.63;2.33;;;;;;;;;;5013555;28;20030;-74
2023/03/10 14:41:59;;;;;;;6.22;3.17;;;;;;;;;;5013782;28;20026;-72
2023/03/10 14:44:25;;;;;;;3.88;1.85;;;;;;;;;;5013699;28;20625;-74
2023/03/10 14:46:51;;;;;;;10.80;7.35;;;;;;;;;;5013846;28;20105;-77
2023/03/10 14:49:20;;;;;;;8.70;5.22;;;;;;;;;;5013432;28;20018;-74